Dorset, Canada
Current Conditions -  °F | °C
As of 3:00 AM on Sunday 26 Oct 2014 (Local Time) from CYQA Reporting Station
Light Rain Light Rain  
Wind Chill: 39°   Ceiling: 4400
Heat Index: 46°   Visibility: 9mi
Dew Point: 39°   Wind: 17mph
Humidity: 76%   Direction: 300°WNW
Pressure: 29.55"   Gusts: 24mph
Location:  45.23°N, 78.88°W
Report Text: CYQA 260700Z AUTO 30015G21KT 9SM -RA SCT031 OVC044 08/04 A2955 RMK SLP010
Loading
Personal Weather Stations






























Interactive Weather Map
Tropical Storm Tracking
New forecast layout! Learn more

10-Day Weather Forecast

Advertisements
Track Severe Weather on mobile